sensor_id;sensor_type;location;lat;lon;timestamp;P1;durP1;ratioP1;P2;durP2;ratioP2
55007;SDS011;40902;45.116;21.296;2023-07-22T00:01:01;10.70;;;4.63;;
55007;SDS011;40902;45.116;21.296;2023-07-22T00:03:27;7.10;;;4.55;;
55007;SDS011;40902;45.116;21.296;2023-07-22T00:08:49;10.55;;;5.43;;
55007;SDS011;40902;45.116;21.296;2023-07-22T00:11:15;9.88;;;4.97;;
55007;SDS011;40902;45.116;21.296;2023-07-22T00:13:41;9.70;;;5.38;;
55007;SDS011;40902;45.116;21.296;2023-07-22T00:16:08;10.82;;;5.38;;
55007;SDS011;40902;45.116;21.296;2023-07-22T00:18:35;12.23;;;6.00;;
55007;SDS011;40902;45.116;21.296;2023-07-22T00:21:01;11.35;;;6.00;;
55007;SDS011;40902;45.116;21.296;2023-07-22T00:23:27;12.82;;;5.68;;
55007;SDS011;40902;45.116;21.296;2023-07-22T00:25:53;11.98;;;6.53;;
55007;SDS011;40902;45.116;21.296;2023-07-22T00:28:19;13.45;;;6.50;;
55007;SDS011;40902;45.116;21.296;2023-07-22T00:30:44;13.65;;;6.38;;
55007;SDS011;40902;45.116;21.296;2023-07-22T00:33:10;10.02;;;6.57;;
55007;SDS011;40902;45.116;21.296;2023-07-22T00:35:36;12.10;;;6.65;;
55007;SDS011;40902;45.116;21.296;2023-07-22T00:38:02;14.48;;;7.70;;
55007;SDS011;40902;45.116;21.296;2023-07-22T00:40:28;10.75;;;6.63;;
55007;SDS011;40902;45.116;21.296;2023-07-22T00:42:57;11.27;;;6.88;;
55007;SDS011;40902;45.116;21.296;2023-07-22T00:45:24;19.95;;;7.70;;
55007;SDS011;40902;45.116;21.296;2023-07-22T00:47:50;13.27;;;7.45;;
55007;SDS011;40902;45.116;21.296;2023-07-22T00:50:15;14.15;;;7.40;;
55007;SDS011;40902;45.116;21.296;2023-07-22T00:52:41;13.43;;;7.57;;
55007;SDS011;40902;45.116;21.296;2023-07-22T00:55:07;18.45;;;8.45;;
55007;SDS011;40902;45.116;21.296;2023-07-22T00:57:33;14.77;;;7.25;;
55007;SDS011;40902;45.116;21.296;2023-07-22T00:59:59;17.88;;;8.73;;
55007;SDS011;40902;45.116;21.296;2023-07-22T01:02:25;13.68;;;7.80;;
55007;SDS011;40902;45.116;21.296;2023-07-22T01:04:51;13.80;;;7.78;;
55007;SDS011;40902;45.116;21.296;2023-07-22T01:07:17;10.20;;;7.32;;
55007;SDS011;40902;45.116;21.296;2023-07-22T01:09:43;12.70;;;7.75;;
55007;SDS011;40902;45.116;21.296;2023-07-22T01:12:10;14.63;;;7.38;;
55007;SDS011;40902;45.116;21.296;2023-07-22T01:14:36;13.00;;;7.18;;
55007;SDS011;40902;45.116;21.296;2023-07-22T01:17:04;13.85;;;7.55;;
55007;SDS011;40902;45.116;21.296;2023-07-22T01:19:31;11.23;;;6.93;;
55007;SDS011;40902;45.116;21.296;2023-07-22T01:22:02;11.73;;;6.38;;
55007;SDS011;40902;45.116;21.296;2023-07-22T01:24:30;14.45;;;7.38;;
55007;SDS011;40902;45.116;21.296;2023-07-22T01:26:56;13.50;;;6.55;;
55007;SDS011;40902;45.116;21.296;2023-07-22T01:29:25;12.98;;;7.05;;
55007;SDS011;40902;45.116;21.296;2023-07-22T01:31:52;13.50;;;6.70;;
55007;SDS011;40902;45.116;21.296;2023-07-22T01:34:19;14.25;;;6.47;;
55007;SDS011;40902;45.116;21.296;2023-07-22T01:36:45;13.38;;;6.78;;
55007;SDS011;40902;45.116;21.296;2023-07-22T01:39:15;12.00;;;6.60;;
55007;SDS011;40902;45.116;21.296;2023-07-22T01:41:41;10.40;;;5.80;;
55007;SDS011;40902;45.116;21.296;2023-07-22T01:44:08;13.10;;;6.35;;
55007;SDS011;40902;45.116;21.296;2023-07-22T01:46:34;9.73;;;5.68;;
55007;SDS011;40902;45.116;21.296;2023-07-22T01:49:01;10.40;;;5.70;;
55007;SDS011;40902;45.116;21.296;2023-07-22T01:51:30;10.45;;;5.47;;
55007;SDS011;40902;45.116;21.296;2023-07-22T01:53:56;8.27;;;6.20;;
55007;SDS011;40902;45.116;21.296;2023-07-22T01:56:22;9.13;;;5.57;;
55007;SDS011;40902;45.116;21.296;2023-07-22T01:58:48;10.23;;;6.30;;
55007;SDS011;40902;45.116;21.296;2023-07-22T02:01:13;10.65;;;5.78;;
55007;SDS011;40902;45.116;21.296;2023-07-22T02:03:41;9.38;;;6.07;;
55007;SDS011;40902;45.116;21.296;2023-07-22T02:06:07;9.55;;;5.85;;
55007;SDS011;40902;45.116;21.296;2023-07-22T02:08:33;13.75;;;6.22;;
55007;SDS011;40902;45.116;21.296;2023-07-22T02:11:02;13.30;;;5.85;;
55007;SDS011;40902;45.116;21.296;2023-07-22T02:13:29;10.30;;;5.88;;
55007;SDS011;40902;45.116;21.296;2023-07-22T02:15:55;14.90;;;6.13;;
55007;SDS011;40902;45.116;21.296;2023-07-22T02:18:21;15.73;;;6.53;;
55007;SDS011;40902;45.116;21.296;2023-07-22T02:20:47;11.02;;;5.95;;
55007;SDS011;40902;45.116;21.296;2023-07-22T02:23:13;13.70;;;6.35;;
55007;SDS011;40902;45.116;21.296;2023-07-22T02:25:39;10.15;;;6.10;;
55007;SDS011;40902;45.116;21.296;2023-07-22T02:28:05;9.85;;;6.10;;
55007;SDS011;40902;45.116;21.296;2023-07-22T02:30:33;11.10;;;6.13;;
55007;SDS011;40902;45.116;21.296;2023-07-22T02:33:02;10.68;;;5.63;;
55007;SDS011;40902;45.116;21.296;2023-07-22T02:35:28;11.32;;;6.10;;
55007;SDS011;40902;45.116;21.296;2023-07-22T02:37:59;11.57;;;5.60;;
55007;SDS011;40902;45.116;21.296;2023-07-22T02:40:38;9.95;;;5.55;;
55007;SDS011;40902;45.116;21.296;2023-07-22T02:43:05;11.68;;;6.35;;
55007;SDS011;40902;45.116;21.296;2023-07-22T02:45:32;11.27;;;5.40;;
55007;SDS011;40902;45.116;21.296;2023-07-22T02:48:01;10.38;;;6.20;;
55007;SDS011;40902;45.116;21.296;2023-07-22T02:50:28;8.23;;;5.38;;
55007;SDS011;40902;45.116;21.296;2023-07-22T02:52:55;11.38;;;5.80;;
55007;SDS011;40902;45.116;21.296;2023-07-22T02:55:21;8.98;;;6.15;;
55007;SDS011;40902;45.116;21.296;2023-07-22T02:57:48;10.63;;;6.10;;
55007;SDS011;40902;45.116;21.296;2023-07-22T03:00:17;11.88;;;6.13;;
55007;SDS011;40902;45.116;21.296;2023-07-22T03:02:53;10.98;;;5.60;;
55007;SDS011;40902;45.116;21.296;2023-07-22T03:05:26;9.07;;;5.22;;
55007;SDS011;40902;45.116;21.296;2023-07-22T03:07:56;11.65;;;5.53;;
55007;SDS011;40902;45.116;21.296;2023-07-22T03:10:22;10.88;;;5.00;;
55007;SDS011;40902;45.116;21.296;2023-07-22T03:12:48;14.15;;;6.28;;
55007;SDS011;40902;45.116;21.296;2023-07-22T03:15:14;9.98;;;5.47;;
55007;SDS011;40902;45.116;21.296;2023-07-22T03:17:40;12.98;;;6.32;;
55007;SDS011;40902;45.116;21.296;2023-07-22T03:20:08;14.90;;;5.95;;
55007;SDS011;40902;45.116;21.296;2023-07-22T03:22:44;10.07;;;5.60;;
55007;SDS011;40902;45.116;21.296;2023-07-22T03:25:10;9.10;;;5.05;;
55007;SDS011;40902;45.116;21.296;2023-07-22T03:27:37;10.27;;;5.72;;
55007;SDS011;40902;45.116;21.296;2023-07-22T03:30:04;8.60;;;5.93;;
55007;SDS011;40902;45.116;21.296;2023-07-22T03:32:35;9.40;;;5.78;;
55007;SDS011;40902;45.116;21.296;2023-07-22T03:35:01;10.23;;;5.82;;
55007;SDS011;40902;45.116;21.296;2023-07-22T03:37:28;9.20;;;5.43;;
55007;SDS011;40902;45.116;21.296;2023-07-22T03:39:54;10.43;;;5.65;;
55007;SDS011;40902;45.116;21.296;2023-07-22T03:42:19;14.23;;;6.30;;
55007;SDS011;40902;45.116;21.296;2023-07-22T03:44:45;13.68;;;5.80;;
55007;SDS011;40902;45.116;21.296;2023-07-22T03:47:11;11.77;;;5.93;;
55007;SDS011;40902;45.116;21.296;2023-07-22T03:49:37;10.48;;;5.88;;
55007;SDS011;40902;45.116;21.296;2023-07-22T03:52:02;11.98;;;6.40;;
55007;SDS011;40902;45.116;21.296;2023-07-22T03:54:28;10.13;;;6.45;;
55007;SDS011;40902;45.116;21.296;2023-07-22T03:56:54;11.50;;;6.15;;
55007;SDS011;40902;45.116;21.296;2023-07-22T03:59:20;11.07;;;5.95;;
55007;SDS011;40902;45.116;21.296;2023-07-22T04:01:45;14.40;;;6.60;;
55007;SDS011;40902;45.116;21.296;2023-07-22T04:04:12;8.77;;;5.90;;
55007;SDS011;40902;45.116;21.296;2023-07-22T04:06:38;11.75;;;6.53;;
55007;SDS011;40902;45.116;21.296;2023-07-22T04:09:04;13.88;;;6.32;;
55007;SDS011;40902;45.116;21.296;2023-07-22T04:11:29;12.70;;;6.80;;
55007;SDS011;40902;45.116;21.296;2023-07-22T04:13:55;9.05;;;7.10;;
55007;SDS011;40902;45.116;21.296;2023-07-22T04:16:21;10.55;;;7.32;;
55007;SDS011;40902;45.116;21.296;2023-07-22T04:18:47;11.23;;;6.30;;
55007;SDS011;40902;45.116;21.296;2023-07-22T04:21:12;11.68;;;6.20;;
55007;SDS011;40902;45.116;21.296;2023-07-22T04:23:38;12.95;;;7.90;;
55007;SDS011;40902;45.116;21.296;2023-07-22T04:26:04;10.63;;;6.45;;
55007;SDS011;40902;45.116;21.296;2023-07-22T04:28:30;10.65;;;6.35;;
55007;SDS011;40902;45.116;21.296;2023-07-22T04:30:56;12.43;;;6.72;;
55007;SDS011;40902;45.116;21.296;2023-07-22T04:33:24;11.90;;;6.30;;
55007;SDS011;40902;45.116;21.296;2023-07-22T04:35:52;16.55;;;7.03;;
55007;SDS011;40902;45.116;21.296;2023-07-22T04:38:19;11.00;;;7.10;;
55007;SDS011;40902;45.116;21.296;2023-07-22T04:40:44;11.50;;;6.20;;
55007;SDS011;40902;45.116;21.296;2023-07-22T04:43:10;11.32;;;6.13;;
55007;SDS011;40902;45.116;21.296;2023-07-22T04:45:37;12.30;;;6.80;;
55007;SDS011;40902;45.116;21.296;2023-07-22T04:48:05;11.40;;;6.05;;
55007;SDS011;40902;45.116;21.296;2023-07-22T04:50:31;12.88;;;7.13;;
55007;SDS011;40902;45.116;21.296;2023-07-22T04:52:57;10.40;;;6.82;;
55007;SDS011;40902;45.116;21.296;2023-07-22T04:55:23;15.77;;;7.82;;
55007;SDS011;40902;45.116;21.296;2023-07-22T04:57:49;16.17;;;7.22;;
55007;SDS011;40902;45.116;21.296;2023-07-22T05:00:16;9.52;;;6.03;;
55007;SDS011;40902;45.116;21.296;2023-07-22T05:02:44;12.75;;;7.07;;
55007;SDS011;40902;45.116;21.296;2023-07-22T05:05:12;12.23;;;7.35;;
55007;SDS011;40902;45.116;21.296;2023-07-22T05:07:38;11.93;;;6.93;;
55007;SDS011;40902;45.116;21.296;2023-07-22T05:10:04;15.05;;;7.20;;
55007;SDS011;40902;45.116;21.296;2023-07-22T05:12:32;11.88;;;7.57;;
55007;SDS011;40902;45.116;21.296;2023-07-22T05:14:57;16.58;;;8.20;;
55007;SDS011;40902;45.116;21.296;2023-07-22T05:17:23;14.45;;;7.30;;
55007;SDS011;40902;45.116;21.296;2023-07-22T05:19:50;15.52;;;7.63;;
55007;SDS011;40902;45.116;21.296;2023-07-22T05:22:16;11.65;;;8.10;;
55007;SDS011;40902;45.116;21.296;2023-07-22T05:24:42;14.90;;;7.78;;
55007;SDS011;40902;45.116;21.296;2023-07-22T05:27:07;14.73;;;9.52;;
55007;SDS011;40902;45.116;21.296;2023-07-22T05:29:33;15.27;;;8.30;;
55007;SDS011;40902;45.116;21.296;2023-07-22T05:31:59;13.75;;;8.75;;
55007;SDS011;40902;45.116;21.296;2023-07-22T05:34:25;15.07;;;9.23;;
55007;SDS011;40902;45.116;21.296;2023-07-22T05:36:50;16.30;;;9.32;;
55007;SDS011;40902;45.116;21.296;2023-07-22T05:39:16;13.73;;;8.65;;
55007;SDS011;40902;45.116;21.296;2023-07-22T05:41:43;17.05;;;9.73;;
55007;SDS011;40902;45.116;21.296;2023-07-22T05:44:09;10.85;;;7.97;;
55007;SDS011;40902;45.116;21.296;2023-07-22T05:46:35;18.75;;;11.02;;
55007;SDS011;40902;45.116;21.296;2023-07-22T05:49:03;15.98;;;9.95;;
55007;SDS011;40902;45.116;21.296;2023-07-22T05:51:29;14.90;;;8.85;;
55007;SDS011;40902;45.116;21.296;2023-07-22T05:53:55;12.80;;;8.52;;
55007;SDS011;40902;45.116;21.296;2023-07-22T05:56:22;12.95;;;7.38;;
55007;SDS011;40902;45.116;21.296;2023-07-22T05:58:51;13.02;;;7.47;;
55007;SDS011;40902;45.116;21.296;2023-07-22T06:01:17;12.55;;;6.93;;
55007;SDS011;40902;45.116;21.296;2023-07-22T06:03:43;12.57;;;7.13;;
55007;SDS011;40902;45.116;21.296;2023-07-22T06:06:09;14.50;;;7.07;;
55007;SDS011;40902;45.116;21.296;2023-07-22T06:08:36;12.45;;;7.13;;
55007;SDS011;40902;45.116;21.296;2023-07-22T06:11:02;14.48;;;7.35;;
55007;SDS011;40902;45.116;21.296;2023-07-22T06:13:28;12.02;;;6.40;;
55007;SDS011;40902;45.116;21.296;2023-07-22T06:15:54;11.50;;;6.25;;
55007;SDS011;40902;45.116;21.296;2023-07-22T06:18:20;8.57;;;5.80;;
55007;SDS011;40902;45.116;21.296;2023-07-22T06:20:46;14.20;;;5.95;;
55007;SDS011;40902;45.116;21.296;2023-07-22T06:23:12;12.63;;;6.55;;
55007;SDS011;40902;45.116;21.296;2023-07-22T06:25:38;11.85;;;6.30;;
55007;SDS011;40902;45.116;21.296;2023-07-22T06:28:04;11.15;;;6.15;;
55007;SDS011;40902;45.116;21.296;2023-07-22T06:30:31;13.77;;;6.82;;
55007;SDS011;40902;45.116;21.296;2023-07-22T06:32:57;12.13;;;7.05;;
55007;SDS011;40902;45.116;21.296;2023-07-22T06:35:23;10.32;;;6.60;;
55007;SDS011;40902;45.116;21.296;2023-07-22T06:37:54;11.00;;;6.15;;
55007;SDS011;40902;45.116;21.296;2023-07-22T06:40:20;12.10;;;6.93;;
55007;SDS011;40902;45.116;21.296;2023-07-22T06:42:46;9.55;;;6.55;;
55007;SDS011;40902;45.116;21.296;2023-07-22T06:45:21;11.07;;;6.13;;
55007;SDS011;40902;45.116;21.296;2023-07-22T06:47:54;13.38;;;5.82;;
55007;SDS011;40902;45.116;21.296;2023-07-22T06:53:07;12.98;;;5.93;;
55007;SDS011;40902;45.116;21.296;2023-07-22T06:55:34;12.35;;;6.60;;
55007;SDS011;40902;45.116;21.296;2023-07-22T06:58:00;10.75;;;6.13;;
55007;SDS011;40902;45.116;21.296;2023-07-22T07:00:28;9.93;;;6.05;;
55007;SDS011;40902;45.116;21.296;2023-07-22T07:02:54;11.18;;;6.10;;
55007;SDS011;40902;45.116;21.296;2023-07-22T07:05:21;9.18;;;6.18;;
55007;SDS011;40902;45.116;21.296;2023-07-22T07:07:48;11.63;;;6.10;;
55007;SDS011;40902;45.116;21.296;2023-07-22T07:10:17;8.00;;;5.68;;
55007;SDS011;40902;45.116;21.296;2023-07-22T07:12:43;11.73;;;6.65;;
55007;SDS011;40902;45.116;21.296;2023-07-22T07:15:09;10.25;;;6.82;;
55007;SDS011;40902;45.116;21.296;2023-07-22T07:17:39;9.80;;;5.53;;
55007;SDS011;40902;45.116;21.296;2023-07-22T07:20:13;8.45;;;5.80;;
55007;SDS011;40902;45.116;21.296;2023-07-22T07:22:40;9.43;;;5.72;;
55007;SDS011;40902;45.116;21.296;2023-07-22T07:25:06;9.13;;;5.78;;
55007;SDS011;40902;45.116;21.296;2023-07-22T07:27:32;11.90;;;7.30;;
55007;SDS011;40902;45.116;21.296;2023-07-22T07:29:58;11.75;;;5.85;;
55007;SDS011;40902;45.116;21.296;2023-07-22T07:32:24;8.73;;;6.20;;
55007;SDS011;40902;45.116;21.296;2023-07-22T07:34:53;9.98;;;5.90;;
55007;SDS011;40902;45.116;21.296;2023-07-22T07:37:19;10.20;;;6.78;;
55007;SDS011;40902;45.116;21.296;2023-07-22T07:39:45;8.50;;;6.20;;
55007;SDS011;40902;45.116;21.296;2023-07-22T07:42:14;9.25;;;7.25;;
55007;SDS011;40902;45.116;21.296;2023-07-22T07:44:40;10.50;;;6.75;;
55007;SDS011;40902;45.116;21.296;2023-07-22T07:47:06;9.70;;;6.53;;
55007;SDS011;40902;45.116;21.296;2023-07-22T07:49:33;8.48;;;7.18;;
55007;SDS011;40902;45.116;21.296;2023-07-22T07:51:59;13.73;;;6.95;;
55007;SDS011;40902;45.116;21.296;2023-07-22T07:54:25;8.45;;;6.82;;
55007;SDS011;40902;45.116;21.296;2023-07-22T07:56:51;9.32;;;7.07;;
55007;SDS011;40902;45.116;21.296;2023-07-22T07:59:17;8.85;;;6.70;;
55007;SDS011;40902;45.116;21.296;2023-07-22T08:01:43;11.30;;;7.30;;
55007;SDS011;40902;45.116;21.296;2023-07-22T08:04:09;10.23;;;7.32;;
55007;SDS011;40902;45.116;21.296;2023-07-22T08:06:42;9.27;;;6.80;;
55007;SDS011;40902;45.116;21.296;2023-07-22T08:09:10;12.90;;;6.45;;
55007;SDS011;40902;45.116;21.296;2023-07-22T08:11:43;11.00;;;6.95;;
55007;SDS011;40902;45.116;21.296;2023-07-22T08:14:09;9.35;;;6.30;;
55007;SDS011;40902;45.116;21.296;2023-07-22T08:16:39;13.93;;;7.13;;
55007;SDS011;40902;45.116;21.296;2023-07-22T08:19:05;9.93;;;6.72;;
55007;SDS011;40902;45.116;21.296;2023-07-22T08:21:31;10.93;;;6.97;;
55007;SDS011;40902;45.116;21.296;2023-07-22T08:23:59;11.25;;;6.93;;
55007;SDS011;40902;45.116;21.296;2023-07-22T08:26:28;13.43;;;7.68;;
55007;SDS011;40902;45.116;21.296;2023-07-22T08:28:56;15.00;;;7.22;;
55007;SDS011;40902;45.116;21.296;2023-07-22T08:31:22;11.20;;;7.80;;
55007;SDS011;40902;45.116;21.296;2023-07-22T08:33:51;13.43;;;6.80;;
55007;SDS011;40902;45.116;21.296;2023-07-22T08:36:17;10.75;;;6.15;;
55007;SDS011;40902;45.116;21.296;2023-07-22T08:38:48;8.88;;;6.60;;
55007;SDS011;40902;45.116;21.296;2023-07-22T08:41:14;10.00;;;6.47;;
55007;SDS011;40902;45.116;21.296;2023-07-22T08:43:41;9.15;;;6.70;;
55007;SDS011;40902;45.116;21.296;2023-07-22T08:46:09;8.45;;;6.55;;
55007;SDS011;40902;45.116;21.296;2023-07-22T08:48:36;12.05;;;6.95;;
55007;SDS011;40902;45.116;21.296;2023-07-22T08:51:09;10.80;;;6.60;;
55007;SDS011;40902;45.116;21.296;2023-07-22T08:53:35;8.65;;;6.20;;
55007;SDS011;40902;45.116;21.296;2023-07-22T08:56:02;10.07;;;5.75;;
55007;SDS011;40902;45.116;21.296;2023-07-22T08:58:29;11.82;;;6.07;;
55007;SDS011;40902;45.116;21.296;2023-07-22T09:00:55;8.55;;;6.00;;
55007;SDS011;40902;45.116;21.296;2023-07-22T09:03:21;7.88;;;6.00;;
55007;SDS011;40902;45.116;21.296;2023-07-22T09:05:47;10.55;;;6.40;;
55007;SDS011;40902;45.116;21.296;2023-07-22T09:08:16;11.57;;;6.00;;
55007;SDS011;40902;45.116;21.296;2023-07-22T09:10:42;8.27;;;5.82;;
55007;SDS011;40902;45.116;21.296;2023-07-22T09:13:08;7.35;;;5.80;;
55007;SDS011;40902;45.116;21.296;2023-07-22T09:15:35;6.85;;;5.18;;
55007;SDS011;40902;45.116;21.296;2023-07-22T09:18:04;8.52;;;5.63;;
55007;SDS011;40902;45.116;21.296;2023-07-22T09:20:30;11.10;;;6.35;;
55007;SDS011;40902;45.116;21.296;2023-07-22T09:22:59;8.02;;;5.40;;
55007;SDS011;40902;45.116;21.296;2023-07-22T09:25:27;8.13;;;5.53;;
55007;SDS011;40902;45.116;21.296;2023-07-22T09:27:57;8.43;;;4.90;;
55007;SDS011;40902;45.116;21.296;2023-07-22T09:30:33;8.88;;;5.40;;
55007;SDS011;40902;45.116;21.296;2023-07-22T09:33:00;6.85;;;4.82;;
55007;SDS011;40902;45.116;21.296;2023-07-22T09:35:30;9.10;;;4.90;;
55007;SDS011;40902;45.116;21.296;2023-07-22T09:37:59;9.02;;;5.78;;
55007;SDS011;40902;45.116;21.296;2023-07-22T09:40:26;10.57;;;6.57;;
55007;SDS011;40902;45.116;21.296;2023-07-22T09:42:53;8.90;;;5.97;;
55007;SDS011;40902;45.116;21.296;2023-07-22T09:45:23;10.02;;;5.85;;
55007;SDS011;40902;45.116;21.296;2023-07-22T09:47:52;9.75;;;5.30;;
55007;SDS011;40902;45.116;21.296;2023-07-22T09:50:19;6.63;;;5.40;;
55007;SDS011;40902;45.116;21.296;2023-07-22T09:52:53;8.90;;;5.15;;
55007;SDS011;40902;45.116;21.296;2023-07-22T09:55:23;8.50;;;5.30;;
55007;SDS011;40902;45.116;21.296;2023-07-22T09:57:50;7.25;;;5.18;;
55007;SDS011;40902;45.116;21.296;2023-07-22T10:00:17;8.90;;;4.85;;
55007;SDS011;40902;45.116;21.296;2023-07-22T10:02:48;7.05;;;4.93;;
55007;SDS011;40902;45.116;21.296;2023-07-22T10:05:16;8.00;;;5.03;;
55007;SDS011;40902;45.116;21.296;2023-07-22T10:07:46;8.02;;;5.10;;
55007;SDS011;40902;45.116;21.296;2023-07-22T10:10:15;8.05;;;5.10;;
55007;SDS011;40902;45.116;21.296;2023-07-22T10:12:41;7.10;;;5.95;;
55007;SDS011;40902;45.116;21.296;2023-07-22T10:15:11;8.27;;;5.20;;
55007;SDS011;40902;45.116;21.296;2023-07-22T10:17:37;9.13;;;5.50;;
55007;SDS011;40902;45.116;21.296;2023-07-22T10:20:04;8.00;;;5.40;;
55007;SDS011;40902;45.116;21.296;2023-07-22T10:22:35;7.43;;;4.78;;
55007;SDS011;40902;45.116;21.296;2023-07-22T10:25:05;9.85;;;5.78;;
55007;SDS011;40902;45.116;21.296;2023-07-22T10:27:34;8.10;;;5.50;;
55007;SDS011;40902;45.116;21.296;2023-07-22T10:30:04;8.02;;;5.68;;
55007;SDS011;40902;45.116;21.296;2023-07-22T10:32:34;8.32;;;5.05;;
55007;SDS011;40902;45.116;21.296;2023-07-22T10:35:01;8.93;;;5.00;;
55007;SDS011;40902;45.116;21.296;2023-07-22T10:37:32;7.68;;;5.30;;
55007;SDS011;40902;45.116;21.296;2023-07-22T10:39:59;7.50;;;5.30;;
55007;SDS011;40902;45.116;21.296;2023-07-22T10:42:25;8.15;;;5.43;;
55007;SDS011;40902;45.116;21.296;2023-07-22T10:44:51;10.13;;;5.80;;
55007;SDS011;40902;45.116;21.296;2023-07-22T10:47:33;9.65;;;5.97;;
55007;SDS011;40902;45.116;21.296;2023-07-22T10:50:05;9.20;;;5.25;;
55007;SDS011;40902;45.116;21.296;2023-07-22T10:52:42;7.05;;;4.93;;
55007;SDS011;40902;45.116;21.296;2023-07-22T10:55:18;8.77;;;4.90;;
55007;SDS011;40902;45.116;21.296;2023-07-22T10:57:48;6.15;;;4.75;;
55007;SDS011;40902;45.116;21.296;2023-07-22T11:00:19;7.40;;;4.57;;
55007;SDS011;40902;45.116;21.296;2023-07-22T11:03:08;7.47;;;4.57;;
55007;SDS011;40902;45.116;21.296;2023-07-22T11:08:36;6.65;;;4.25;;
55007;SDS011;40902;45.116;21.296;2023-07-22T11:11:03;7.82;;;4.70;;
55007;SDS011;40902;45.116;21.296;2023-07-22T11:13:30;8.05;;;4.80;;
55007;SDS011;40902;45.116;21.296;2023-07-22T11:16:00;6.93;;;4.57;;
55007;SDS011;40902;45.116;21.296;2023-07-22T11:18:39;6.88;;;4.47;;
55007;SDS011;40902;45.116;21.296;2023-07-22T11:21:11;5.40;;;4.20;;
55007;SDS011;40902;45.116;21.296;2023-07-22T11:23:37;7.20;;;4.30;;
55007;SDS011;40902;45.116;21.296;2023-07-22T11:26:04;6.22;;;4.25;;
55007;SDS011;40902;45.116;21.296;2023-07-22T11:28:30;8.55;;;6.55;;
55007;SDS011;40902;45.116;21.296;2023-07-22T11:30:59;6.40;;;4.10;;
55007;SDS011;40902;45.116;21.296;2023-07-22T11:33:26;4.65;;;4.00;;
55007;SDS011;40902;45.116;21.296;2023-07-22T11:36:05;7.28;;;4.70;;
55007;SDS011;40902;45.116;21.296;2023-07-22T11:38:32;8.13;;;4.63;;
55007;SDS011;40902;45.116;21.296;2023-07-22T11:40:58;6.30;;;4.38;;
55007;SDS011;40902;45.116;21.296;2023-07-22T11:43:24;6.85;;;3.95;;
55007;SDS011;40902;45.116;21.296;2023-07-22T11:45:50;6.10;;;4.00;;
55007;SDS011;40902;45.116;21.296;2023-07-22T11:48:17;7.20;;;4.43;;
55007;SDS011;40902;45.116;21.296;2023-07-22T11:50:44;8.02;;;4.20;;
55007;SDS011;40902;45.116;21.296;2023-07-22T11:53:10;9.73;;;4.15;;
55007;SDS011;40902;45.116;21.296;2023-07-22T11:55:36;10.32;;;4.07;;
55007;SDS011;40902;45.116;21.296;2023-07-22T11:58:06;8.05;;;5.18;;
55007;SDS011;40902;45.116;21.296;2023-07-22T12:00:34;10.38;;;4.93;;
55007;SDS011;40902;45.116;21.296;2023-07-22T12:03:06;6.60;;;4.43;;
55007;SDS011;40902;45.116;21.296;2023-07-22T12:05:34;6.22;;;4.45;;
55007;SDS011;40902;45.116;21.296;2023-07-22T12:08:02;7.55;;;4.22;;
55007;SDS011;40902;45.116;21.296;2023-07-22T12:10:29;6.30;;;4.05;;
55007;SDS011;40902;45.116;21.296;2023-07-22T12:12:55;5.93;;;4.03;;
55007;SDS011;40902;45.116;21.296;2023-07-22T12:15:26;5.93;;;4.20;;
55007;SDS011;40902;45.116;21.296;2023-07-22T12:17:56;6.53;;;4.57;;
55007;SDS011;40902;45.116;21.296;2023-07-22T12:20:28;6.07;;;4.82;;
55007;SDS011;40902;45.116;21.296;2023-07-22T12:22:54;9.40;;;5.10;;
55007;SDS011;40902;45.116;21.296;2023-07-22T12:25:21;5.38;;;3.88;;
55007;SDS011;40902;45.116;21.296;2023-07-22T12:27:47;8.48;;;5.28;;
55007;SDS011;40902;45.116;21.296;2023-07-22T12:30:18;6.50;;;3.80;;
55007;SDS011;40902;45.116;21.296;2023-07-22T12:32:44;6.30;;;4.40;;
55007;SDS011;40902;45.116;21.296;2023-07-22T12:35:13;6.35;;;4.80;;
55007;SDS011;40902;45.116;21.296;2023-07-22T12:37:39;6.88;;;4.30;;
55007;SDS011;40902;45.116;21.296;2023-07-22T12:40:08;5.55;;;4.18;;
55007;SDS011;40902;45.116;21.296;2023-07-22T12:42:37;8.00;;;5.05;;
55007;SDS011;40902;45.116;21.296;2023-07-22T12:45:04;6.43;;;4.63;;
55007;SDS011;40902;45.116;21.296;2023-07-22T12:47:30;11.45;;;4.53;;
55007;SDS011;40902;45.116;21.296;2023-07-22T12:49:57;7.80;;;5.53;;
55007;SDS011;40902;45.116;21.296;2023-07-22T12:52:23;5.80;;;4.53;;
55007;SDS011;40902;45.116;21.296;2023-07-22T12:54:49;6.18;;;4.32;;
55007;SDS011;40902;45.116;21.296;2023-07-22T12:57:17;5.28;;;4.30;;
55007;SDS011;40902;45.116;21.296;2023-07-22T12:59:46;10.13;;;4.65;;
55007;SDS011;40902;45.116;21.296;2023-07-22T13:02:12;6.00;;;4.20;;
55007;SDS011;40902;45.116;21.296;2023-07-22T13:04:41;5.95;;;4.38;;
55007;SDS011;40902;45.116;21.296;2023-07-22T13:07:09;7.03;;;4.70;;
55007;SDS011;40902;45.116;21.296;2023-07-22T13:09:35;8.05;;;6.45;;
55007;SDS011;40902;45.116;21.296;2023-07-22T13:12:08;5.32;;;4.03;;
55007;SDS011;40902;45.116;21.296;2023-07-22T13:14:34;6.38;;;4.30;;
55007;SDS011;40902;45.116;21.296;2023-07-22T13:17:00;5.43;;;4.15;;
55007;SDS011;40902;45.116;21.296;2023-07-22T13:19:29;5.75;;;4.65;;
55007;SDS011;40902;45.116;21.296;2023-07-22T13:21:55;7.00;;;4.38;;
55007;SDS011;40902;45.116;21.296;2023-07-22T13:24:21;6.68;;;3.97;;
55007;SDS011;40902;45.116;21.296;2023-07-22T13:26:47;8.30;;;4.95;;
55007;SDS011;40902;45.116;21.296;2023-07-22T13:29:13;6.38;;;4.78;;
55007;SDS011;40902;45.116;21.296;2023-07-22T13:31:39;7.00;;;4.93;;
55007;SDS011;40902;45.116;21.296;2023-07-22T13:34:05;4.88;;;4.32;;
55007;SDS011;40902;45.116;21.296;2023-07-22T13:36:31;5.13;;;4.47;;
55007;SDS011;40902;45.116;21.296;2023-07-22T13:38:57;5.55;;;4.45;;
55007;SDS011;40902;45.116;21.296;2023-07-22T13:41:23;5.50;;;4.07;;
55007;SDS011;40902;45.116;21.296;2023-07-22T13:43:49;5.75;;;4.38;;
55007;SDS011;40902;45.116;21.296;2023-07-22T13:46:16;8.18;;;3.90;;
55007;SDS011;40902;45.116;21.296;2023-07-22T13:48:42;4.60;;;3.50;;
55007;SDS011;40902;45.116;21.296;2023-07-22T13:51:08;6.80;;;4.35;;
55007;SDS011;40902;45.116;21.296;2023-07-22T13:53:34;6.20;;;4.35;;
55007;SDS011;40902;45.116;21.296;2023-07-22T13:56:00;5.60;;;4.38;;
55007;SDS011;40902;45.116;21.296;2023-07-22T13:58:26;5.45;;;4.05;;
55007;SDS011;40902;45.116;21.296;2023-07-22T14:00:52;7.32;;;4.68;;
55007;SDS011;40902;45.116;21.296;2023-07-22T14:03:18;6.57;;;3.90;;
55007;SDS011;40902;45.116;21.296;2023-07-22T14:05:45;7.50;;;4.68;;
55007;SDS011;40902;45.116;21.296;2023-07-22T14:08:12;7.32;;;4.20;;
55007;SDS011;40902;45.116;21.296;2023-07-22T14:10:38;4.55;;;3.70;;
55007;SDS011;40902;45.116;21.296;2023-07-22T14:13:06;6.82;;;4.90;;
55007;SDS011;40902;45.116;21.296;2023-07-22T14:15:33;4.47;;;3.50;;
55007;SDS011;40902;45.116;21.296;2023-07-22T14:17:59;5.68;;;4.43;;
55007;SDS011;40902;45.116;21.296;2023-07-22T14:20:28;4.55;;;3.63;;
55007;SDS011;40902;45.116;21.296;2023-07-22T14:22:55;5.78;;;4.40;;
55007;SDS011;40902;45.116;21.296;2023-07-22T14:25:21;7.60;;;4.78;;
55007;SDS011;40902;45.116;21.296;2023-07-22T14:27:47;6.72;;;4.43;;
55007;SDS011;40902;45.116;21.296;2023-07-22T14:30:14;6.43;;;4.10;;
55007;SDS011;40902;45.116;21.296;2023-07-22T14:32:40;5.38;;;3.83;;
55007;SDS011;40902;45.116;21.296;2023-07-22T14:35:06;6.05;;;4.85;;
55007;SDS011;40902;45.116;21.296;2023-07-22T14:37:32;5.28;;;4.25;;